createdAt,value
2018-02-24T00:00:30.456Z,0
2018-02-24T00:01:11.001Z,0
2018-02-24T00:01:51.576Z,0
2018-02-24T00:02:32.084Z,0
2018-02-24T00:03:12.653Z,0
2018-02-24T00:03:53.186Z,0
2018-02-24T00:04:33.733Z,0
2018-02-24T00:05:14.307Z,0
2018-02-24T00:05:54.839Z,0
2018-02-24T00:06:35.400Z,0
2018-02-24T00:07:15.962Z,0
2018-02-24T00:07:56.593Z,0
2018-02-24T00:08:37.187Z,0
2018-02-24T00:09:17.741Z,0
2018-02-24T00:09:58.299Z,0
2018-02-24T00:10:38.844Z,0
2018-02-24T00:11:19.383Z,0
2018-02-24T00:12:00.054Z,0
2018-02-24T00:12:40.573Z,0
2018-02-24T00:13:21.141Z,0
2018-02-24T00:14:01.709Z,0
2018-02-24T00:14:42.245Z,0
2018-02-24T00:15:23.019Z,0
2018-02-24T00:16:03.569Z,0
2018-02-24T00:16:44.128Z,0
2018-02-24T00:17:24.673Z,0
2018-02-24T00:18:05.224Z,0
2018-02-24T00:18:45.762Z,0
2018-02-24T00:19:26.363Z,0
2018-02-24T00:20:06.892Z,0
2018-02-24T00:20:47.477Z,0
2018-02-24T00:21:28.007Z,0
2018-02-24T00:22:08.554Z,0
2018-02-24T00:22:49.081Z,0
2018-02-24T00:23:29.648Z,0
2018-02-24T00:24:10.175Z,0
2018-02-24T00:24:50.764Z,0
2018-02-24T00:25:31.387Z,0
2018-02-24T00:26:11.952Z,0
2018-02-24T00:26:52.538Z,0
2018-02-24T00:27:33.095Z,0
2018-02-24T00:28:13.635Z,0
2018-02-24T00:28:54.235Z,0
2018-02-24T00:29:34.854Z,0
2018-02-24T00:30:15.443Z,0
2018-02-24T00:30:56.198Z,0
2018-02-24T00:31:36.747Z,0
2018-02-24T00:32:17.273Z,0
2018-02-24T00:32:57.834Z,0
2018-02-24T00:33:38.396Z,0
2018-02-24T00:34:18.942Z,0
2018-02-24T00:34:59.493Z,0
2018-02-24T00:35:40.131Z,0
2018-02-24T00:36:20.666Z,0
2018-02-24T00:37:01.224Z,0
2018-02-24T00:37:41.776Z,0
2018-02-24T00:38:22.309Z,0
2018-02-24T00:39:02.855Z,0
2018-02-24T00:39:43.380Z,0
2018-02-24T00:40:24.043Z,0
2018-02-24T00:41:04.524Z,0
2018-02-24T00:41:45.092Z,0
2018-02-24T00:42:25.652Z,0
2018-02-24T00:43:06.210Z,0
2018-02-24T00:43:46.758Z,0
2018-02-24T00:44:27.367Z,0
2018-02-24T00:45:07.898Z,0
2018-02-24T00:45:48.444Z,0
2018-02-24T00:46:28.971Z,0
2018-02-24T00:47:09.522Z,0
2018-02-24T00:47:50.108Z,0
2018-02-24T00:48:30.670Z,0
2018-02-24T00:49:11.196Z,0
2018-02-24T00:49:51.762Z,0
2018-02-24T00:50:32.311Z,0
2018-02-24T00:51:12.873Z,0
2018-02-24T00:51:53.410Z,0
2018-02-24T00:52:33.968Z,0
2018-02-24T00:53:14.493Z,0
2018-02-24T00:53:55.039Z,0
2018-02-24T00:54:35.616Z,0
2018-02-24T00:55:16.359Z,0
2018-02-24T00:55:56.896Z,0
2018-02-24T00:56:37.426Z,0
2018-02-24T00:57:18.036Z,0
2018-02-24T00:57:58.574Z,0
2018-02-24T00:58:39.105Z,0
2018-02-24T00:59:19.662Z,0
2018-02-24T01:00:00.258Z,0
2018-02-24T01:00:40.780Z,0
2018-02-24T01:01:21.332Z,0
2018-02-24T01:02:01.887Z,0
2018-02-24T01:02:42.425Z,0
2018-02-24T01:03:23.003Z,0
2018-02-24T01:04:03.555Z,0
2018-02-24T01:04:44.090Z,0
2018-02-24T01:05:24.648Z,0
2018-02-24T01:06:05.200Z,0
2018-02-24T01:06:45.805Z,0
2018-02-24T01:07:26.355Z,0
2018-02-24T01:08:06.886Z,0
2018-02-24T01:08:47.458Z,0
2018-02-24T01:09:27.998Z,0
2018-02-24T01:10:08.553Z,0
2018-02-24T01:10:49.117Z,0
2018-02-24T01:11:29.647Z,0
2018-02-24T01:12:10.235Z,0
2018-02-24T01:12:50.805Z,0
2018-02-24T01:13:31.407Z,0
2018-02-24T01:14:11.939Z,0
2018-02-24T01:14:52.488Z,0
2018-02-24T01:15:33.092Z,0
2018-02-24T01:16:13.632Z,0
2018-02-24T01:16:54.226Z,0
2018-02-24T01:17:34.739Z,0
2018-02-24T01:18:15.312Z,0
2018-02-24T01:18:55.863Z,0
2018-02-24T01:19:36.452Z,0
2018-02-24T01:20:17.018Z,0
2018-02-24T01:20:57.552Z,0
2018-02-24T01:21:38.104Z,0
2018-02-24T01:22:18.696Z,0
2018-02-24T01:22:59.243Z,0
2018-02-24T01:23:39.781Z,0
2018-02-24T01:24:20.326Z,0
2018-02-24T01:25:00.891Z,0
2018-02-24T01:25:41.565Z,0
2018-02-24T01:26:22.089Z,0
2018-02-24T01:27:02.678Z,0
2018-02-24T01:27:43.184Z,0
2018-02-24T01:28:23.765Z,0
2018-02-24T01:29:04.355Z,0
2018-02-24T01:29:44.916Z,0
2018-02-24T01:30:25.491Z,0
2018-02-24T01:31:06.000Z,0
2018-02-24T01:31:46.558Z,0
2018-02-24T01:32:27.108Z,0
2018-02-24T01:33:07.642Z,0
2018-02-24T01:33:48.202Z,0
2018-02-24T01:34:28.754Z,0
2018-02-24T01:35:09.332Z,0
2018-02-24T01:35:49.866Z,0
2018-02-24T01:36:30.452Z,0
2018-02-24T01:37:11.095Z,0
2018-02-24T01:37:51.611Z,0
2018-02-24T01:38:32.192Z,0
2018-02-24T01:39:12.736Z,0
2018-02-24T01:39:53.271Z,0
2018-02-24T01:40:33.837Z,0
2018-02-24T01:41:14.403Z,0
2018-02-24T01:41:55.013Z,0
2018-02-24T01:42:35.512Z,0
2018-02-24T01:43:16.092Z,0
2018-02-24T01:43:56.650Z,0
2018-02-24T01:44:37.195Z,0
2018-02-24T01:45:17.749Z,0
2018-02-24T01:45:58.268Z,0
2018-02-24T01:46:38.847Z,0
2018-02-24T01:47:19.392Z,0
2018-02-24T01:47:59.944Z,0
2018-02-24T01:48:40.475Z,0
2018-02-24T01:49:21.025Z,0
2018-02-24T01:50:01.589Z,0
2018-02-24T01:50:42.177Z,0
2018-02-24T01:51:22.722Z,0
2018-02-24T01:52:03.245Z,0
2018-02-24T01:52:43.791Z,0
2018-02-24T01:53:24.337Z,0
2018-02-24T01:54:04.877Z,0
2018-02-24T01:54:45.474Z,0
2018-02-24T01:55:26.010Z,0
2018-02-24T01:56:06.586Z,0
2018-02-24T01:56:47.094Z,0
2018-02-24T01:57:27.643Z,0
2018-02-24T01:58:08.187Z,0
2018-02-24T01:58:48.727Z,0
2018-02-24T01:59:29.259Z,0
2018-02-24T02:00:09.821Z,0
2018-02-24T02:00:50.394Z,0
2018-02-24T02:01:31.089Z,0
2018-02-24T02:02:11.540Z,0
2018-02-24T02:02:52.078Z,0
2018-02-24T02:03:32.625Z,0
2018-02-24T02:04:13.162Z,0
2018-02-24T02:04:53.731Z,0
2018-02-24T02:05:34.286Z,0
2018-02-24T02:06:14.807Z,0
2018-02-24T02:06:55.372Z,0
2018-02-24T02:07:35.936Z,0
2018-02-24T02:08:16.481Z,0
2018-02-24T02:08:57.052Z,0
2018-02-24T02:09:37.570Z,0
2018-02-24T02:10:18.116Z,0
2018-02-24T02:10:58.700Z,0
2018-02-24T02:11:39.239Z,0
2018-02-24T02:12:19.784Z,0
2018-02-24T02:13:00.338Z,0
2018-02-24T02:13:40.903Z,0
2018-02-24T02:14:21.484Z,0
2018-02-24T02:15:02.033Z,0
2018-02-24T02:15:42.641Z,0
2018-02-24T02:16:23.208Z,0
2018-02-24T02:17:03.762Z,0
2018-02-24T02:17:44.368Z,0
2018-02-24T02:18:24.923Z,0
2018-02-24T02:19:05.461Z,0
2018-02-24T02:19:46.049Z,0
2018-02-24T02:20:26.599Z,0
2018-02-24T02:21:07.138Z,0
2018-02-24T02:21:47.686Z,0
2018-02-24T02:22:28.247Z,0
2018-02-24T02:23:08.806Z,0
2018-02-24T02:23:49.375Z,0
2018-02-24T02:24:29.944Z,0
2018-02-24T02:25:10.480Z,0
2018-02-24T02:25:51.041Z,0
2018-02-24T02:26:31.643Z,0
2018-02-24T02:27:12.208Z,0
2018-02-24T02:27:52.731Z,0
2018-02-24T02:28:33.319Z,0
2018-02-24T02:29:13.839Z,0
2018-02-24T02:29:54.443Z,0
2018-02-24T02:30:35.006Z,0
2018-02-24T02:31:15.631Z,0
2018-02-24T02:31:56.223Z,0
2018-02-24T02:32:36.805Z,0
2018-02-24T02:33:17.343Z,0
2018-02-24T02:33:57.984Z,0
2018-02-24T02:34:38.488Z,0
2018-02-24T02:35:19.037Z,0
2018-02-24T02:35:59.593Z,0
2018-02-24T02:36:40.185Z,0
2018-02-24T02:37:20.704Z,0
2018-02-24T02:38:01.302Z,0
2018-02-24T02:38:41.824Z,0
2018-02-24T02:39:22.361Z,0
2018-02-24T02:40:02.919Z,0
2018-02-24T02:40:43.483Z,0
2018-02-24T02:41:24.060Z,0
2018-02-24T02:42:04.629Z,0
2018-02-24T02:42:45.186Z,0
2018-02-24T02:43:25.727Z,0
2018-02-24T02:44:06.382Z,0
2018-02-24T02:44:46.944Z,0
2018-02-24T02:45:27.512Z,0
2018-02-24T02:46:08.093Z,0
2018-02-24T02:46:48.662Z,0
2018-02-24T02:47:29.233Z,0
2018-02-24T02:48:09.775Z,0
2018-02-24T02:48:50.396Z,0
2018-02-24T02:49:31.032Z,0
2018-02-24T02:50:11.604Z,0
2018-02-24T02:50:52.161Z,0
2018-02-24T02:51:32.697Z,0
2018-02-24T02:52:13.259Z,0
2018-02-24T02:52:53.850Z,0
2018-02-24T02:53:34.378Z,0
2018-02-24T02:54:14.971Z,0
2018-02-24T02:54:55.535Z,0
2018-02-24T02:55:36.132Z,0
2018-02-24T02:56:16.686Z,0
2018-02-24T02:56:57.234Z,0
2018-02-24T02:57:37.793Z,0
2018-02-24T02:58:18.363Z,0
2018-02-24T02:58:58.916Z,0
2018-02-24T02:59:39.459Z,0
2018-02-24T03:00:20.004Z,0
2018-02-24T03:01:00.561Z,0
2018-02-24T03:01:41.128Z,0
2018-02-24T03:02:21.683Z,0
2018-02-24T03:03:02.263Z,0
2018-02-24T03:03:42.808Z,0
2018-02-24T03:04:23.395Z,0
2018-02-24T03:05:03.933Z,0
2018-02-24T03:05:44.493Z,0
2018-02-24T03:06:25.053Z,0
2018-02-24T03:07:05.633Z,0
2018-02-24T03:07:46.181Z,0
2018-02-24T03:08:26.738Z,0
2018-02-24T03:09:07.294Z,0
2018-02-24T03:09:47.847Z,0
2018-02-24T03:10:28.405Z,0
2018-02-24T03:11:08.939Z,0
2018-02-24T03:11:49.475Z,0
2018-02-24T03:12:30.021Z,0
2018-02-24T03:13:10.680Z,0
2018-02-24T03:13:51.221Z,0
2018-02-24T03:14:31.760Z,0
2018-02-24T03:15:12.309Z,0
2018-02-24T03:15:52.866Z,0
2018-02-24T03:16:33.400Z,0
2018-02-24T03:17:14.032Z,0
2018-02-24T03:17:54.532Z,0
2018-02-24T03:18:35.079Z,0
2018-02-24T03:19:15.624Z,0
2018-02-24T03:19:56.156Z,0
2018-02-24T03:20:36.800Z,0
2018-02-24T03:21:17.355Z,0
2018-02-24T03:21:57.881Z,0
2018-02-24T03:22:38.429Z,0
2018-02-24T03:23:18.976Z,0
2018-02-24T03:23:59.554Z,0
2018-02-24T03:24:40.101Z,0
2018-02-24T03:25:20.651Z,0
2018-02-24T03:26:01.192Z,0
2018-02-24T03:26:41.763Z,0
2018-02-24T03:27:22.303Z,0
2018-02-24T03:28:02.854Z,0
2018-02-24T03:28:43.410Z,0
2018-02-24T03:29:23.969Z,0
2018-02-24T03:30:04.525Z,0
2018-02-24T03:30:45.139Z,0
2018-02-24T03:31:25.729Z,0
2018-02-24T03:32:06.292Z,0
2018-02-24T03:32:46.834Z,0
2018-02-24T03:33:27.376Z,0
2018-02-24T03:34:07.941Z,0
2018-02-24T03:34:48.493Z,0
2018-02-24T03:35:29.034Z,0
2018-02-24T03:36:09.561Z,0
2018-02-24T03:36:50.145Z,0
2018-02-24T03:37:30.678Z,0
2018-02-24T03:40:03.792Z,0
2018-02-24T03:40:44.350Z,0
2018-02-24T03:41:24.917Z,0
2018-02-24T03:42:05.445Z,0
2018-02-24T03:42:46.000Z,0
2018-02-24T03:43:26.544Z,0
2018-02-24T03:44:07.102Z,0
2018-02-24T03:44:47.688Z,0
2018-02-24T03:45:28.206Z,0
2018-02-24T03:46:08.792Z,0
2018-02-24T03:46:49.334Z,0
2018-02-24T03:47:29.900Z,0
2018-02-24T03:48:10.453Z,0
2018-02-24T03:48:50.992Z,0
2018-02-24T03:49:31.534Z,0
2018-02-24T03:50:12.126Z,0
2018-02-24T03:50:52.691Z,0
2018-02-24T03:51:33.226Z,0
2018-02-24T03:52:13.806Z,0
2018-02-24T03:52:54.363Z,0
2018-02-24T03:53:34.928Z,0
2018-02-24T03:54:15.528Z,0
2018-02-24T03:54:56.080Z,0
2018-02-24T03:55:36.643Z,0
2018-02-24T03:56:17.205Z,0
2018-02-24T03:56:57.752Z,0
2018-02-24T03:57:38.319Z,0
2018-02-24T03:58:18.890Z,0
2018-02-24T03:58:59.436Z,0
2018-02-24T03:59:40.014Z,0
2018-02-24T04:00:20.560Z,0
2018-02-24T04:01:01.122Z,0
2018-02-24T04:01:41.726Z,0
2018-02-24T04:02:22.293Z,0
2018-02-24T04:03:02.847Z,0
2018-02-24T04:03:43.391Z,0
2018-02-24T04:04:23.973Z,0
2018-02-24T04:05:04.525Z,0
2018-02-24T04:05:45.087Z,0
2018-02-24T04:06:25.663Z,0
2018-02-24T04:07:06.206Z,0
2018-02-24T04:07:46.756Z,0
2018-02-24T04:08:27.307Z,0
2018-02-24T04:09:07.883Z,0
2018-02-24T04:09:48.416Z,0
2018-02-24T04:10:28.988Z,0
2018-02-24T04:11:09.582Z,0
2018-02-24T04:11:50.131Z,0
2018-02-24T04:12:30.660Z,0
2018-02-24T04:13:11.217Z,0
2018-02-24T04:13:51.772Z,0
2018-02-24T04:14:32.299Z,0
2018-02-24T04:15:12.837Z,0
2018-02-24T04:15:53.380Z,0
2018-02-24T04:16:33.914Z,0
2018-02-24T04:17:14.464Z,0
2018-02-24T04:17:55.003Z,0
2018-02-24T04:18:35.543Z,0
2018-02-24T04:19:16.103Z,0
2018-02-24T04:19:56.671Z,0
2018-02-24T04:20:37.219Z,0
2018-02-24T04:21:17.770Z,0
2018-02-24T04:21:58.317Z,0
2018-02-24T04:22:38.882Z,0
2018-02-24T04:23:19.426Z,0
2018-02-24T04:24:00.028Z,0
2018-02-24T04:24:40.570Z,0
2018-02-24T04:25:21.122Z,0
2018-02-24T04:26:01.725Z,0
2018-02-24T04:26:42.244Z,0
2018-02-24T04:27:22.795Z,0
2018-02-24T04:28:03.331Z,0
2018-02-24T04:28:43.904Z,0
2018-02-24T04:29:24.465Z,0
2018-02-24T04:30:04.992Z,0
2018-02-24T04:30:45.546Z,0
2018-02-24T04:31:26.103Z,0
2018-02-24T04:32:06.710Z,0
2018-02-24T04:32:47.248Z,0
2018-02-24T04:33:27.781Z,0
2018-02-24T04:34:08.371Z,0
2018-02-24T04:34:48.988Z,0
2018-02-24T04:35:29.488Z,0
2018-02-24T04:36:10.069Z,0
2018-02-24T04:36:50.896Z,0
2018-02-24T04:37:31.453Z,0
2018-02-24T04:38:12.019Z,0
2018-02-24T04:38:52.590Z,0
2018-02-24T04:39:33.142Z,0
2018-02-24T04:40:13.716Z,0
2018-02-24T04:40:54.258Z,0
2018-02-24T04:41:34.819Z,0
2018-02-24T04:42:15.371Z,0
2018-02-24T04:42:55.945Z,0
2018-02-24T04:43:36.530Z,0
2018-02-24T04:44:17.089Z,0
2018-02-24T04:44:57.682Z,0
2018-02-24T04:45:38.247Z,0
2018-02-24T04:46:18.784Z,0
2018-02-24T04:46:59.364Z,0
2018-02-24T04:47:39.941Z,0
2018-02-24T04:48:20.489Z,0
2018-02-24T04:49:01.037Z,0
2018-02-24T04:49:41.591Z,0
2018-02-24T04:50:22.169Z,0
2018-02-24T04:51:02.702Z,0
2018-02-24T04:51:43.242Z,0
2018-02-24T04:52:23.788Z,0
2018-02-24T04:53:04.343Z,0
2018-02-24T04:53:44.957Z,0
2018-02-24T04:54:25.461Z,0
2018-02-24T04:55:06.034Z,0
2018-02-24T04:55:46.636Z,0
2018-02-24T04:56:27.148Z,0
2018-02-24T04:57:07.727Z,0
2018-02-24T04:57:48.254Z,0
2018-02-24T04:58:28.828Z,0
2018-02-24T04:59:09.389Z,0
2018-02-24T04:59:49.930Z,0
2018-02-24T05:00:30.469Z,0
2018-02-24T05:01:11.014Z,0
2018-02-24T05:01:51.579Z,0
2018-02-24T05:02:32.114Z,0
2018-02-24T05:03:12.655Z,0
2018-02-24T05:03:53.195Z,0
2018-02-24T05:04:33.738Z,0
2018-02-24T05:05:14.287Z,0
2018-02-24T05:05:54.858Z,0
2018-02-24T05:06:35.428Z,0
2018-02-24T05:07:15.976Z,0
2018-02-24T05:07:56.546Z,0
2018-02-24T05:08:37.072Z,0
2018-02-24T05:09:17.592Z,0
2018-02-24T05:09:58.138Z,0
2018-02-24T05:10:38.673Z,0
2018-02-24T05:11:19.250Z,0
2018-02-24T05:11:59.791Z,0
2018-02-24T05:12:40.343Z,0
2018-02-24T05:13:20.933Z,0
2018-02-24T05:14:01.468Z,0
2018-02-24T05:14:42.137Z,0
2018-02-24T05:15:22.669Z,0
2018-02-24T05:16:03.219Z,0
2018-02-24T05:16:43.823Z,0
2018-02-24T05:17:24.374Z,0
2018-02-24T05:18:04.919Z,0
2018-02-24T05:18:45.471Z,0
2018-02-24T05:19:26.011Z,0
2018-02-24T05:20:06.558Z,0
2018-02-24T05:20:47.081Z,0
2018-02-24T05:21:27.661Z,0
2018-02-24T05:22:08.185Z,0
2018-02-24T05:22:48.800Z,0
2018-02-24T05:23:29.342Z,0
2018-02-24T05:24:09.901Z,0
2018-02-24T05:24:50.466Z,0
2018-02-24T05:25:31.044Z,0
2018-02-24T05:26:11.642Z,0
2018-02-24T05:26:52.160Z,0
2018-02-24T05:27:32.739Z,0
2018-02-24T05:28:13.282Z,0
2018-02-24T05:28:53.849Z,0
2018-02-24T05:29:34.404Z,0
2018-02-24T05:30:15.013Z,0
2018-02-24T05:30:55.543Z,0
2018-02-24T05:31:36.097Z,0
2018-02-24T05:32:16.689Z,0
2018-02-24T05:32:57.254Z,0
2018-02-24T05:33:37.815Z,0
2018-02-24T05:34:18.378Z,0
2018-02-24T05:34:58.984Z,0
2018-02-24T05:35:39.555Z,0
2018-02-24T05:36:20.137Z,0
2018-02-24T05:37:00.674Z,0
2018-02-24T05:37:41.223Z,0
2018-02-24T05:38:21.813Z,4
2018-02-24T05:39:02.403Z,4
2018-02-24T05:39:43.045Z,0
2018-02-24T05:40:23.602Z,0
2018-02-24T05:41:04.302Z,0
2018-02-24T05:41:44.995Z,4
2018-02-24T05:42:25.597Z,4
2018-02-24T05:43:06.245Z,4
2018-02-24T05:43:46.768Z,4
2018-02-24T05:44:27.337Z,4
2018-02-24T05:45:07.980Z,4
2018-02-24T05:45:48.527Z,8
2018-02-24T05:46:29.081Z,4
2018-02-24T05:47:09.635Z,8
2018-02-24T05:47:50.173Z,8
2018-02-24T05:48:30.723Z,8
2018-02-24T05:49:11.288Z,8
2018-02-24T05:49:51.854Z,12
2018-02-24T05:50:32.391Z,16
2018-02-24T05:51:12.982Z,16
2018-02-24T05:51:53.500Z,20
2018-02-24T05:52:34.090Z,20
2018-02-24T05:53:14.640Z,28
2018-02-24T05:53:55.241Z,28
2018-02-24T05:54:35.796Z,32
2018-02-24T05:55:16.415Z,36
2018-02-24T05:55:57.019Z,44
2018-02-24T05:56:37.556Z,48
2018-02-24T05:57:18.103Z,52
2018-02-24T05:57:58.658Z,52
2018-02-24T05:58:39.219Z,56
2018-02-24T05:59:19.780Z,68
2018-02-24T06:00:00.341Z,76
2018-02-24T06:00:40.864Z,80
2018-02-24T06:01:21.420Z,92
2018-02-24T06:02:02.005Z,112
2018-02-24T06:02:42.549Z,132
2018-02-24T06:03:23.100Z,156
2018-02-24T06:04:03.653Z,172
2018-02-24T06:04:44.208Z,188
2018-02-24T06:05:25.722Z,200
2018-02-24T06:09:16.283Z,296
2018-02-24T06:09:56.827Z,324
2018-02-24T06:10:37.355Z,348
2018-02-24T06:11:17.894Z,380
2018-02-24T06:11:58.447Z,400
2018-02-24T06:12:39.021Z,420
2018-02-24T06:13:19.573Z,432
2018-02-24T06:14:00.106Z,448
2018-02-24T06:14:40.703Z,472
2018-02-24T06:15:21.262Z,516
2018-02-24T06:16:01.800Z,548
2018-02-24T06:16:42.398Z,580
2018-02-24T06:17:22.936Z,600
2018-02-24T06:18:03.499Z,600
2018-02-24T06:18:44.048Z,604
2018-02-24T06:19:24.600Z,612
2018-02-24T06:20:05.180Z,628
2018-02-24T06:20:45.780Z,652
2018-02-24T06:21:26.302Z,676
2018-02-24T06:22:06.834Z,700
2018-02-24T06:22:47.392Z,732
2018-02-24T06:23:27.929Z,760
2018-02-24T06:24:08.471Z,788
2018-02-24T06:24:49.039Z,812
2018-02-24T06:25:29.598Z,840
2018-02-24T06:26:10.224Z,868
2018-02-24T06:26:50.764Z,896
2018-02-24T06:27:31.393Z,924
2018-02-24T06:28:12.110Z,960
2018-02-24T06:28:52.710Z,1000
2018-02-24T06:29:33.394Z,1032
2018-02-24T06:30:14.121Z,1068
2018-02-24T06:30:54.775Z,1104
2018-02-24T06:31:35.338Z,1144
2018-02-24T06:32:15.906Z,1180
2018-02-24T06:32:56.466Z,1216
2018-02-24T06:33:37.385Z,1240
2018-02-24T06:34:17.936Z,1264
2018-02-24T06:34:58.497Z,1300
2018-02-24T06:35:39.086Z,1332
2018-02-24T06:36:19.690Z,1360
2018-02-24T06:37:00.247Z,1384
2018-02-24T06:37:40.807Z,1412
2018-02-24T06:38:21.356Z,1420
2018-02-24T06:39:01.972Z,1444
2018-02-24T06:39:42.657Z,1460
2018-02-24T06:40:23.214Z,1468
2018-02-24T06:41:03.754Z,1484
2018-02-24T06:41:44.373Z,1508
2018-02-24T06:42:24.944Z,1528
2018-02-24T06:43:05.511Z,1544
2018-02-24T06:43:46.144Z,1568
2018-02-24T06:44:26.704Z,1596
2018-02-24T06:45:07.276Z,1620
2018-02-24T06:45:47.931Z,1652
2018-02-24T06:46:28.508Z,1680
2018-02-24T06:47:09.096Z,1700
2018-02-24T06:47:49.644Z,1736
2018-02-24T06:48:30.202Z,1780
2018-02-24T06:49:10.760Z,1812
2018-02-24T06:49:51.403Z,1852
2018-02-24T06:50:31.964Z,1896
2018-02-24T06:51:12.526Z,1920
2018-02-24T06:51:53.131Z,1932
2018-02-24T06:52:33.726Z,1908
2018-02-24T06:53:14.343Z,1908
2018-02-24T06:53:54.914Z,1908
2018-02-24T06:54:35.475Z,1868
2018-02-24T06:55:16.088Z,1820
2018-02-24T06:55:56.675Z,1832
2018-02-24T06:56:37.261Z,1828
2018-02-24T06:57:17.816Z,1824
2018-02-24T06:57:58.470Z,1824
2018-02-24T06:58:39.007Z,1836
2018-02-24T06:59:19.558Z,1872
2018-02-24T07:00:00.175Z,1960
2018-02-24T07:00:40.713Z,2076
2018-02-24T07:01:21.302Z,2132
2018-02-24T07:02:01.881Z,2176
2018-02-24T07:02:42.451Z,2236
2018-02-24T07:03:23.015Z,2256
2018-02-24T07:04:03.576Z,2272
2018-02-24T07:04:44.141Z,2296
2018-02-24T07:05:24.692Z,2328
2018-02-24T07:06:05.255Z,2324
2018-02-24T07:06:45.860Z,2344
2018-02-24T07:07:26.489Z,2404
2018-02-24T07:08:06.994Z,2452
2018-02-24T07:08:47.574Z,2496
2018-02-24T07:09:28.131Z,2564
2018-02-24T07:10:08.712Z,2612
2018-02-24T07:10:49.298Z,2664
2018-02-24T07:11:29.853Z,2736
2018-02-24T07:12:10.415Z,2828
2018-02-24T07:12:50.971Z,2916
2018-02-24T07:13:31.560Z,2980
2018-02-24T07:14:12.195Z,3064
2018-02-24T07:14:52.792Z,3184
2018-02-24T07:15:33.369Z,3280
2018-02-24T07:16:13.938Z,3360
2018-02-24T07:16:55.166Z,3432
2018-02-24T07:17:35.684Z,3492
2018-02-24T07:18:16.251Z,3544
2018-02-24T07:18:56.797Z,3592
2018-02-24T07:19:37.391Z,3632
2018-02-24T07:20:17.934Z,3676
2018-02-24T07:20:58.842Z,3720
2018-02-24T07:21:39.438Z,3760
2018-02-24T07:22:19.997Z,3772
2018-02-24T07:23:00.658Z,3780
2018-02-24T07:23:41.945Z,3808
2018-02-24T07:24:22.843Z,3812
2018-02-24T07:25:03.726Z,3828
2018-02-24T07:25:44.497Z,3840
2018-02-24T07:26:25.048Z,3808
2018-02-24T07:27:05.914Z,3788
2018-02-24T07:27:46.813Z,3796
2018-02-24T07:28:27.430Z,3852
2018-02-24T07:29:08.090Z,3872
2018-02-24T07:29:48.636Z,3812
2018-02-24T07:30:29.244Z,3728
2018-02-24T07:31:09.960Z,3664
2018-02-24T07:31:50.535Z,3708
2018-02-24T07:32:31.099Z,3748
2018-02-24T07:33:11.663Z,3744
2018-02-24T07:33:52.208Z,3700
2018-02-24T07:34:33.125Z,3624
2018-02-24T07:35:13.880Z,3552
2018-02-24T07:35:54.482Z,3464
2018-02-24T07:36:35.107Z,3428
2018-02-24T07:37:15.716Z,3376
2018-02-24T07:37:56.326Z,3388
2018-02-24T07:38:36.875Z,3480
2018-02-24T07:39:17.512Z,3580
2018-02-24T07:39:58.051Z,3652
2018-02-24T07:40:38.630Z,3720
2018-02-24T07:41:19.163Z,3816
2018-02-24T07:41:59.707Z,3944
2018-02-24T07:42:40.291Z,4052
2018-02-24T07:43:20.955Z,4160
2018-02-24T07:44:01.694Z,4252
2018-02-24T07:44:42.251Z,4324
2018-02-24T07:45:22.808Z,4376
2018-02-24T07:46:03.487Z,4476
2018-02-24T07:46:44.079Z,4572
2018-02-24T07:47:24.668Z,4668
2018-02-24T07:48:05.202Z,4832
2018-02-24T07:48:45.884Z,4976
2018-02-24T07:49:26.458Z,5132
2018-02-24T07:50:07.119Z,5280
2018-02-24T07:50:47.730Z,5388
2018-02-24T07:51:28.265Z,5492
2018-02-24T07:52:08.796Z,5568
2018-02-24T07:52:49.365Z,5588
2018-02-24T07:53:29.908Z,5612
2018-02-24T07:54:10.522Z,5660
2018-02-24T07:54:51.187Z,5660
2018-02-24T07:55:31.854Z,5616
2018-02-24T07:56:12.436Z,5600
2018-02-24T07:56:52.993Z,5612
2018-02-24T07:57:33.530Z,5704
2018-02-24T07:58:14.097Z,5724
2018-02-24T07:58:54.656Z,5736
2018-02-24T07:59:35.199Z,5756
2018-02-24T08:00:15.794Z,5944
2018-02-24T08:00:56.348Z,6292
2018-02-24T08:01:36.919Z,7428
2018-02-24T08:02:17.427Z,14408
2018-02-24T08:02:57.993Z,28576
2018-02-24T08:03:38.555Z,42912
2018-02-24T08:04:19.149Z,47264
2018-02-24T08:04:59.690Z,45888
2018-02-24T08:05:40.232Z,55328
2018-02-24T08:06:20.872Z,65344
2018-02-24T08:07:01.372Z,65664
2018-02-24T08:07:42.011Z,67072
2018-02-24T08:08:22.540Z,69472
2018-02-24T08:09:03.095Z,70976
2018-02-24T08:09:43.640Z,77792
2018-02-24T08:10:24.245Z,82208
2018-02-24T08:11:04.825Z,79360
2018-02-24T08:11:45.366Z,75136
2018-02-24T08:12:25.940Z,74624
2018-02-24T08:13:06.496Z,70592
2018-02-24T08:13:47.040Z,67104
2018-02-24T08:14:27.641Z,64640
2018-02-24T08:15:08.171Z,66336
2018-02-24T08:15:48.713Z,65312
2018-02-24T08:16:29.274Z,70240
2018-02-24T08:17:09.882Z,72800
2018-02-24T08:17:50.462Z,75296
2018-02-24T08:18:31.036Z,77152
2018-02-24T08:19:11.625Z,78368
2018-02-24T08:19:52.238Z,72320
2018-02-24T08:20:32.785Z,69344
2018-02-24T08:21:13.344Z,70304
2018-02-24T08:21:53.885Z,80736
2018-02-24T08:22:34.458Z,81152
2018-02-24T08:23:15.028Z,67968
2018-02-24T08:23:55.598Z,59616
2018-02-24T08:24:36.164Z,57760
2018-02-24T08:25:16.752Z,46144
2018-02-24T08:25:57.276Z,34272
2018-02-24T08:26:37.837Z,32384
2018-02-24T08:27:18.440Z,23488
2018-02-24T08:27:59.036Z,21792
2018-02-24T08:28:39.637Z,27456
2018-02-24T08:29:20.206Z,23392
2018-02-24T08:30:00.760Z,29792
2018-02-24T08:30:41.333Z,25632
2018-02-24T08:31:21.871Z,25216
2018-02-24T08:32:02.409Z,23520
2018-02-24T08:32:42.998Z,26272
2018-02-24T08:33:23.612Z,23744
2018-02-24T08:34:04.164Z,25312
2018-02-24T08:34:44.804Z,25824
2018-02-24T08:35:25.375Z,13832
2018-02-24T08:36:05.965Z,16416
2018-02-24T08:36:46.504Z,17920
2018-02-24T08:37:27.099Z,22400
2018-02-24T08:38:07.693Z,20480
2018-02-24T08:38:48.266Z,21920
2018-02-24T08:39:28.839Z,28512
2018-02-24T08:40:09.445Z,22624
2018-02-24T08:40:50.014Z,27872
2018-02-24T08:41:30.599Z,46336
2018-02-24T08:42:11.179Z,35296
2018-02-24T08:42:51.767Z,18656
2018-02-24T08:43:32.356Z,51840
2018-02-24T08:44:12.935Z,43392
2018-02-24T08:44:53.511Z,37472
2018-02-24T08:45:34.054Z,37856
2018-02-24T08:46:14.648Z,47136
2018-02-24T08:46:55.199Z,40960
2018-02-24T08:47:35.864Z,46848
2018-02-24T08:48:16.509Z,52448
2018-02-24T08:48:57.030Z,52960
2018-02-24T08:49:37.670Z,51360
2018-02-24T08:50:18.293Z,53312
2018-02-24T08:50:58.816Z,50272
2018-02-24T08:51:39.365Z,54784
2018-02-24T08:52:19.986Z,54624
2018-02-24T08:53:00.546Z,55168
2018-02-24T08:53:41.085Z,55424
2018-02-24T08:54:21.740Z,58336
2018-02-24T08:55:02.341Z,57728
2018-02-24T08:55:42.884Z,54432
2018-02-24T08:56:23.462Z,6724
2018-02-24T08:57:04.076Z,48384
2018-02-24T08:57:44.634Z,43904
2018-02-24T08:58:25.214Z,40288
2018-02-24T08:59:05.764Z,35392
2018-02-24T08:59:46.327Z,34432
2018-02-24T09:00:26.904Z,34656
2018-02-24T09:01:07.483Z,29216
2018-02-24T09:01:48.087Z,24096
2018-02-24T09:02:28.636Z,24128
2018-02-24T09:03:09.215Z,22784
2018-02-24T09:03:49.753Z,21920
2018-02-24T09:04:30.363Z,21120
2018-02-24T09:05:10.946Z,19840
2018-02-24T09:05:51.504Z,20224
2018-02-24T09:06:32.066Z,19488
2018-02-24T09:07:12.626Z,18784
2018-02-24T09:07:53.245Z,18976
2018-02-24T09:08:33.867Z,17184
2018-02-24T09:09:14.393Z,16128
2018-02-24T09:09:54.964Z,15904
2018-02-24T09:10:35.550Z,15488
2018-02-24T09:11:16.104Z,15264
2018-02-24T09:11:56.649Z,15168
2018-02-24T09:12:37.265Z,7340
2018-02-24T09:13:18.364Z,9820
2018-02-24T09:13:58.910Z,7548
2018-02-24T09:14:39.542Z,12060
2018-02-24T09:15:20.105Z,5036
2018-02-24T09:16:00.713Z,4780
2018-02-24T09:16:41.281Z,5528
2018-02-24T09:17:21.808Z,9620
2018-02-24T09:18:02.375Z,8960
2018-02-24T09:18:43.052Z,5428
2018-02-24T09:19:23.580Z,4704
2018-02-24T09:20:04.129Z,4244
2018-02-24T09:20:44.776Z,6476
2018-02-24T09:21:25.382Z,8724
2018-02-24T09:22:06.241Z,9232
2018-02-24T09:22:46.793Z,5172
2018-02-24T09:23:27.371Z,4568
2018-02-24T09:24:08.039Z,5232
2018-02-24T09:24:48.581Z,4824
2018-02-24T09:25:29.151Z,5264
2018-02-24T09:26:09.756Z,8892
2018-02-24T09:26:50.459Z,5656
2018-02-24T09:27:31.006Z,6112
2018-02-24T09:28:11.926Z,7672
2018-02-24T09:28:52.985Z,6332
2018-02-24T09:29:33.868Z,6496
2018-02-24T09:30:14.482Z,9420
2018-02-24T09:30:55.035Z,9088
2018-02-24T09:31:35.695Z,5928
2018-02-24T09:32:17.732Z,7708
2018-02-24T09:32:58.555Z,6708
2018-02-24T09:33:39.122Z,6148
2018-02-24T09:34:19.658Z,6068
2018-02-24T09:35:00.239Z,6076
2018-02-24T09:35:40.830Z,5936
2018-02-24T09:36:21.481Z,5944
2018-02-24T09:37:02.196Z,6148
2018-02-24T09:37:43.199Z,6504
2018-02-24T09:38:24.041Z,6992
2018-02-24T09:39:05.215Z,6932